createdAt,value
2018-09-15T00:01:28.995Z,7.72
2018-09-15T00:03:57.174Z,7.15
2018-09-15T00:06:25.355Z,7.08
2018-09-15T00:08:53.560Z,7.12
2018-09-15T00:11:21.740Z,6.33
2018-09-15T00:13:49.943Z,7.47
2018-09-15T00:16:18.130Z,6.85
2018-09-15T00:18:46.329Z,7.67
2018-09-15T00:21:14.541Z,6.80
2018-09-15T00:23:42.924Z,7.25
2018-09-15T00:26:11.154Z,7.58
2018-09-15T00:28:39.359Z,6.97
2018-09-15T00:31:07.552Z,7.28
2018-09-15T00:33:35.752Z,6.87
2018-09-15T00:36:03.956Z,7.12
2018-09-15T00:38:32.186Z,7.70
2018-09-15T00:41:00.397Z,7.20
2018-09-15T00:43:28.593Z,7.33
2018-09-15T00:45:56.771Z,7.35
2018-09-15T00:48:24.952Z,6.92
2018-09-15T00:50:53.146Z,6.70
2018-09-15T00:53:21.327Z,7.42
2018-09-15T00:55:49.519Z,6.90
2018-09-15T00:58:17.743Z,7.15
2018-09-15T01:00:45.914Z,7.47
2018-09-15T01:03:14.202Z,6.65
2018-09-15T01:05:42.486Z,7.08
2018-09-15T01:08:10.693Z,6.87
2018-09-15T01:10:38.875Z,6.75
2018-09-15T01:13:07.120Z,7.60
2018-09-15T01:15:35.305Z,6.65
2018-09-15T01:18:03.556Z,7.90
2018-09-15T01:20:31.737Z,7.08
2018-09-15T01:22:59.939Z,8.00
2018-09-15T01:25:28.159Z,7.55
2018-09-15T01:27:56.363Z,8.10
2018-09-15T01:30:24.557Z,8.40
2018-09-15T01:32:52.763Z,7.30
2018-09-15T01:35:20.966Z,6.47
2018-09-15T01:37:49.142Z,7.80
2018-09-15T01:40:17.343Z,7.83
2018-09-15T01:42:45.536Z,7.00
2018-09-15T01:45:13.788Z,7.83
2018-09-15T01:47:41.968Z,6.92
2018-09-15T01:50:10.148Z,7.47
2018-09-15T01:52:38.327Z,7.70
2018-09-15T01:55:06.579Z,7.37
2018-09-15T01:57:34.819Z,7.10
2018-09-15T02:00:02.953Z,7.60
2018-09-15T02:02:31.142Z,7.53
2018-09-15T02:04:59.323Z,7.28
2018-09-15T02:07:27.482Z,6.95
2018-09-15T02:09:55.674Z,6.70
2018-09-15T02:12:23.860Z,7.25
2018-09-15T02:14:52.052Z,6.85
2018-09-15T02:17:20.234Z,7.50
2018-09-15T02:19:48.447Z,6.78
2018-09-15T02:22:16.646Z,7.37
2018-09-15T02:24:44.830Z,6.58
2018-09-15T02:27:13.047Z,6.92
2018-09-15T02:29:41.219Z,7.08
2018-09-15T02:32:09.399Z,7.17
2018-09-15T02:34:37.581Z,7.22
2018-09-15T02:37:05.824Z,6.50
2018-09-15T02:39:34.023Z,6.35
2018-09-15T02:42:02.223Z,6.53
2018-09-15T02:44:30.424Z,7.25
2018-09-15T02:46:58.612Z,7.25
2018-09-15T02:49:26.841Z,6.67
2018-09-15T02:51:55.016Z,7.03
2018-09-15T02:54:23.198Z,7.22
2018-09-15T02:56:51.371Z,7.30
2018-09-15T02:59:19.558Z,7.50
2018-09-15T03:01:47.761Z,7.15
2018-09-15T03:04:15.948Z,7.65
2018-09-15T03:06:44.140Z,6.78
2018-09-15T03:09:13.226Z,6.87
2018-09-15T03:11:41.483Z,6.60
2018-09-15T03:14:09.783Z,7.00
2018-09-15T03:16:38.401Z,6.58
2018-09-15T03:19:06.665Z,7.05
2018-09-15T03:21:34.909Z,7.10
2018-09-15T03:24:03.163Z,6.83
2018-09-15T03:26:31.514Z,6.95
2018-09-15T03:28:59.720Z,6.47
2018-09-15T03:31:27.930Z,6.95
2018-09-15T03:33:56.150Z,6.55
2018-09-15T03:36:24.356Z,6.53
2018-09-15T03:38:52.571Z,7.30
2018-09-15T03:41:20.815Z,7.15
2018-09-15T03:43:49.023Z,6.87
2018-09-15T03:46:17.244Z,6.65
2018-09-15T03:48:45.434Z,6.35
2018-09-15T03:51:13.694Z,6.97
2018-09-15T03:53:41.887Z,6.25
2018-09-15T03:56:10.075Z,6.60
2018-09-15T03:58:38.284Z,6.20
2018-09-15T04:01:06.504Z,6.95
2018-09-15T04:03:34.747Z,6.50
2018-09-15T04:06:02.936Z,6.80
2018-09-15T04:08:31.150Z,6.33
2018-09-15T04:10:59.358Z,6.62
2018-09-15T04:13:27.542Z,6.70
2018-09-15T04:15:55.719Z,7.53
2018-09-15T04:18:23.912Z,7.05
2018-09-15T04:20:52.103Z,7.55
2018-09-15T04:23:20.292Z,6.62
2018-09-15T04:25:48.456Z,7.28
2018-09-15T04:28:16.706Z,7.12
2018-09-15T04:30:44.847Z,7.67
2018-09-15T04:33:13.044Z,6.78
2018-09-15T04:35:41.328Z,6.92
2018-09-15T04:38:09.529Z,7.20
2018-09-15T04:40:37.726Z,7.72
2018-09-15T04:43:05.906Z,6.85
2018-09-15T04:45:34.082Z,7.28
2018-09-15T04:48:02.271Z,6.87
2018-09-15T04:50:30.451Z,6.90
2018-09-15T04:52:58.641Z,6.75
2018-09-15T04:55:26.822Z,6.97
2018-09-15T04:57:55.000Z,7.12
2018-09-15T05:00:23.163Z,7.40
2018-09-15T05:02:51.533Z,7.83
2018-09-15T05:05:19.833Z,7.10
2018-09-15T05:07:48.006Z,7.28
2018-09-15T05:10:16.201Z,7.45
2018-09-15T05:12:44.404Z,6.90
2018-09-15T05:15:12.607Z,7.30
2018-09-15T05:17:40.772Z,7.20
2018-09-15T05:20:08.950Z,7.20
2018-09-15T05:22:37.146Z,7.58
2018-09-15T05:25:05.355Z,6.80
2018-09-15T05:27:33.549Z,6.55
2018-09-15T05:30:01.767Z,6.90
2018-09-15T05:32:29.993Z,7.12
2018-09-15T05:34:58.292Z,7.22
2018-09-15T05:37:26.473Z,6.17
2018-09-15T05:39:54.687Z,6.62
2018-09-15T05:42:22.858Z,7.35
2018-09-15T05:44:51.047Z,6.33
2018-09-15T05:47:19.219Z,6.80
2018-09-15T05:49:47.525Z,7.33
2018-09-15T05:52:15.633Z,7.45
2018-09-15T05:54:43.822Z,6.30
2018-09-15T05:57:12.001Z,6.92
2018-09-15T05:59:40.180Z,7.03
2018-09-15T06:02:08.703Z,6.70
2018-09-15T06:04:36.886Z,7.58
2018-09-15T06:07:05.154Z,7.55
2018-09-15T06:09:33.331Z,7.80
2018-09-15T06:12:01.506Z,7.92
2018-09-15T06:14:29.746Z,7.72
2018-09-15T06:16:57.924Z,7.95
2018-09-15T06:19:26.123Z,7.70
2018-09-15T06:21:54.307Z,6.87
2018-09-15T06:24:22.506Z,7.40
2018-09-15T06:26:50.698Z,6.67
2018-09-15T06:29:18.912Z,7.15
2018-09-15T06:31:47.111Z,6.90
2018-09-15T06:34:15.308Z,7.40
2018-09-15T06:36:43.527Z,7.45
2018-09-15T06:39:12.048Z,7.80
2018-09-15T06:41:40.195Z,7.10
2018-09-15T06:44:08.384Z,7.17
2018-09-15T06:46:36.586Z,7.55
2018-09-15T06:49:04.855Z,7.45
2018-09-15T06:51:33.043Z,7.45
2018-09-15T06:54:01.587Z,8.10
2018-09-15T06:56:29.780Z,7.92
2018-09-15T06:58:57.938Z,8.20
2018-09-15T07:01:26.352Z,8.58
2018-09-15T07:03:54.542Z,7.92
2018-09-15T07:06:22.743Z,7.75
2018-09-15T07:08:50.960Z,7.87
2018-09-15T07:11:19.135Z,8.18
2018-09-15T07:13:47.321Z,8.13
2018-09-15T07:16:15.527Z,8.45
2018-09-15T07:18:43.716Z,7.87
2018-09-15T07:21:11.890Z,7.72
2018-09-15T07:23:40.069Z,7.62
2018-09-15T07:26:08.237Z,8.03
2018-09-15T07:28:36.419Z,9.00
2018-09-15T07:31:04.600Z,8.93
2018-09-15T07:33:32.897Z,8.80
2018-09-15T07:36:01.077Z,9.20
2018-09-15T07:38:29.273Z,8.05
2018-09-15T07:40:57.455Z,8.43
2018-09-15T07:43:25.735Z,8.28
2018-09-15T07:45:53.855Z,8.13
2018-09-15T07:48:22.054Z,8.18
2018-09-15T07:50:50.228Z,7.60
2018-09-15T07:53:18.404Z,7.87
2018-09-15T07:55:46.608Z,7.33
2018-09-15T07:58:14.895Z,8.85
2018-09-15T08:00:43.126Z,7.53
2018-09-15T08:03:11.347Z,8.13
2018-09-15T08:05:39.527Z,7.20
2018-09-15T08:08:07.731Z,8.23
2018-09-15T08:10:35.918Z,7.60
2018-09-15T08:13:04.108Z,7.08
2018-09-15T08:15:32.303Z,7.70
2018-09-15T08:18:00.503Z,7.12
2018-09-15T08:20:28.751Z,7.40
2018-09-15T08:22:56.973Z,8.70
2018-09-15T08:25:25.155Z,8.83
2018-09-15T08:27:53.334Z,8.80
2018-09-15T08:30:21.526Z,8.90
2018-09-15T08:32:49.785Z,8.35
2018-09-15T08:35:18.156Z,8.35
2018-09-15T08:37:46.416Z,8.38
2018-09-15T08:40:14.776Z,7.78
2018-09-15T08:42:42.974Z,9.03
2018-09-15T08:45:11.180Z,7.78
2018-09-15T08:47:39.362Z,8.78
2018-09-15T08:50:07.753Z,8.30
2018-09-15T08:52:35.940Z,9.30
2018-09-15T08:55:04.172Z,9.08
2018-09-15T08:57:32.345Z,9.33
2018-09-15T09:00:00.547Z,9.23
2018-09-15T09:02:28.765Z,7.95
2018-09-15T09:04:57.049Z,10.00
2018-09-15T09:07:25.230Z,8.95
2018-09-15T09:09:53.398Z,9.23
2018-09-15T09:12:21.576Z,9.53
2018-09-15T09:14:49.763Z,9.50
2018-09-15T09:17:17.970Z,8.65
2018-09-15T09:19:46.203Z,7.83
2018-09-15T09:22:14.352Z,7.80
2018-09-15T09:24:42.552Z,7.55
2018-09-15T09:27:10.754Z,8.98
2018-09-15T09:29:38.941Z,8.88
2018-09-15T09:32:07.152Z,8.00
2018-09-15T09:34:35.344Z,7.90
2018-09-15T09:37:03.524Z,6.03
2018-09-15T09:39:31.724Z,6.65
2018-09-15T09:41:59.919Z,6.97
2018-09-15T09:44:28.088Z,6.92
2018-09-15T09:46:56.358Z,7.28
2018-09-15T09:49:24.540Z,11.00
2018-09-15T09:51:52.718Z,7.65
2018-09-15T09:54:20.902Z,7.90
2018-09-15T09:56:49.070Z,6.80
2018-09-15T09:59:17.255Z,7.95
2018-09-15T10:01:50.819Z,6.65
2018-09-15T10:04:19.006Z,5.30
2018-09-15T10:06:47.186Z,5.45
2018-09-15T10:09:15.365Z,5.72
2018-09-15T10:11:43.547Z,5.15
2018-09-15T10:14:11.715Z,4.92
2018-09-15T10:16:39.907Z,4.70
2018-09-15T10:19:08.727Z,5.20
2018-09-15T10:21:36.958Z,4.40
2018-09-15T10:24:05.113Z,4.75
2018-09-15T10:26:33.341Z,4.47
2018-09-15T10:29:01.571Z,4.05
2018-09-15T10:31:29.761Z,4.22
2018-09-15T10:33:57.943Z,3.42
2018-09-15T10:36:26.145Z,4.60
2018-09-15T10:38:54.327Z,3.70
2018-09-15T10:41:22.516Z,3.70
2018-09-15T10:43:50.732Z,3.72
2018-09-15T10:46:18.967Z,3.50
2018-09-15T10:48:47.519Z,2.98
2018-09-15T10:51:15.698Z,3.65
2018-09-15T10:53:43.881Z,3.37
2018-09-15T10:56:12.068Z,4.08
2018-09-15T10:58:40.490Z,3.70
2018-09-15T11:01:08.659Z,3.35
2018-09-15T11:03:36.862Z,3.80
2018-09-15T11:06:05.064Z,3.98
2018-09-15T11:08:33.262Z,4.35
2018-09-15T11:11:01.461Z,3.45
2018-09-15T11:13:29.669Z,3.58
2018-09-15T11:15:57.879Z,3.85
2018-09-15T11:18:26.066Z,3.67
2018-09-15T11:20:54.268Z,3.67
2018-09-15T11:23:22.826Z,3.10
2018-09-15T11:25:51.009Z,3.05
2018-09-15T11:28:19.188Z,3.08
2018-09-15T11:30:47.367Z,3.12
2018-09-15T11:33:15.548Z,3.27
2018-09-15T11:35:43.723Z,3.02
2018-09-15T11:38:11.900Z,3.10
2018-09-15T11:40:40.133Z,3.02
2018-09-15T11:43:08.357Z,3.05
2018-09-15T11:45:36.787Z,2.92
2018-09-15T11:48:05.058Z,2.52
2018-09-15T11:50:33.278Z,2.72
2018-09-15T11:53:01.484Z,2.50
2018-09-15T11:55:29.665Z,2.30
2018-09-15T11:57:57.880Z,2.37
2018-09-15T12:00:31.185Z,2.58
2018-09-15T12:02:59.351Z,2.47
2018-09-15T12:05:27.528Z,2.58
2018-09-15T12:07:55.814Z,2.80
2018-09-15T12:10:23.934Z,2.15
2018-09-15T12:12:52.114Z,2.33
2018-09-15T12:15:21.407Z,2.50
2018-09-15T12:17:49.592Z,2.22
2018-09-15T12:20:18.263Z,2.60
2018-09-15T12:22:46.461Z,2.60
2018-09-15T12:25:14.844Z,2.30
2018-09-15T12:27:43.096Z,2.50
2018-09-15T12:30:11.227Z,2.37
2018-09-15T12:32:39.419Z,2.62
2018-09-15T12:35:07.594Z,2.52
2018-09-15T12:37:35.791Z,2.22
2018-09-15T12:40:04.071Z,2.10
2018-09-15T12:42:32.293Z,2.40
2018-09-15T12:45:00.539Z,2.20
2018-09-15T12:47:28.702Z,2.20
2018-09-15T12:49:57.750Z,1.92
2018-09-15T12:52:25.996Z,1.90
2018-09-15T12:54:54.189Z,2.15
2018-09-15T12:57:22.373Z,1.92
2018-09-15T12:59:50.575Z,2.25
2018-09-15T13:02:18.776Z,2.15
2018-09-15T13:04:46.979Z,2.00
2018-09-15T13:07:15.189Z,1.82
2018-09-15T13:09:43.391Z,2.35
2018-09-15T13:12:11.709Z,2.17
2018-09-15T13:14:39.842Z,2.30
2018-09-15T13:17:08.111Z,2.92
2018-09-15T13:19:36.304Z,2.30
2018-09-15T13:22:04.502Z,2.10
2018-09-15T13:24:32.713Z,2.50
2018-09-15T13:27:00.903Z,2.12
2018-09-15T13:29:29.174Z,2.72
2018-09-15T13:31:57.295Z,2.10
2018-09-15T13:34:25.508Z,2.47
2018-09-15T13:36:53.692Z,2.27
2018-09-15T13:39:22.477Z,2.60
2018-09-15T13:41:50.678Z,2.70
2018-09-15T13:44:18.870Z,2.47
2018-09-15T13:46:47.091Z,2.52
2018-09-15T13:49:15.249Z,2.80
2018-09-15T13:51:43.456Z,2.50
2018-09-15T13:54:11.678Z,2.50
2018-09-15T13:56:39.858Z,2.00
2018-09-15T13:59:08.075Z,2.33
2018-09-15T14:01:36.267Z,2.00
2018-09-15T14:04:04.479Z,2.17
2018-09-15T14:06:32.653Z,2.58
2018-09-15T14:09:00.856Z,2.10
2018-09-15T14:11:29.059Z,1.82
2018-09-15T14:13:57.298Z,2.20
2018-09-15T14:16:25.556Z,2.05
2018-09-15T14:18:53.670Z,2.22
2018-09-15T14:21:21.860Z,2.17
2018-09-15T14:23:50.115Z,2.15
2018-09-15T14:26:18.295Z,2.40
2018-09-15T14:28:46.569Z,1.90
2018-09-15T14:31:14.772Z,2.40
2018-09-15T14:33:42.972Z,1.98
2018-09-15T14:36:11.192Z,2.20
2018-09-15T14:38:39.451Z,2.90
2018-09-15T14:41:07.598Z,2.10
2018-09-15T14:43:35.766Z,2.15
2018-09-15T14:46:03.951Z,2.08
2018-09-15T14:48:32.155Z,2.33
2018-09-15T14:51:00.356Z,1.80
2018-09-15T14:53:28.534Z,1.80
2018-09-15T14:55:56.712Z,2.00
2018-09-15T14:58:24.902Z,1.80
2018-09-15T15:00:53.080Z,1.87
2018-09-15T15:03:21.253Z,1.95
2018-09-15T15:05:49.438Z,1.98
2018-09-15T15:08:17.685Z,1.80
2018-09-15T15:10:45.899Z,2.25
2018-09-15T15:13:14.058Z,1.80
2018-09-15T15:15:42.259Z,1.90
2018-09-15T15:18:10.449Z,2.08
2018-09-15T15:20:38.650Z,1.65
2018-09-15T15:23:06.889Z,2.22
2018-09-15T15:25:35.229Z,1.92
2018-09-15T15:28:03.403Z,1.72
2018-09-15T15:30:31.936Z,2.17
2018-09-15T15:33:00.124Z,2.05
2018-09-15T15:35:28.390Z,1.47
2018-09-15T15:37:56.542Z,2.02
2018-09-15T15:40:25.625Z,1.60
2018-09-15T15:42:53.806Z,1.65
2018-09-15T15:45:21.967Z,2.10
2018-09-15T15:47:50.156Z,1.70
2018-09-15T15:50:18.355Z,1.80
2018-09-15T15:52:46.537Z,2.20
2018-09-15T15:55:14.712Z,1.52
2018-09-15T15:57:42.913Z,2.02
2018-09-15T16:00:11.099Z,1.80
2018-09-15T16:02:39.303Z,1.70
2018-09-15T16:05:07.495Z,1.80
2018-09-15T16:07:35.708Z,1.82
2018-09-15T16:10:03.855Z,1.80
2018-09-15T16:12:32.046Z,1.82
2018-09-15T16:15:01.060Z,1.70
2018-09-15T16:17:29.249Z,1.90
2018-09-15T16:19:57.461Z,1.55
2018-09-15T16:22:25.636Z,1.82
2018-09-15T16:24:53.819Z,1.75
2018-09-15T16:27:22.013Z,1.80
2018-09-15T16:29:50.202Z,1.80
2018-09-15T16:32:18.410Z,2.50
2018-09-15T16:34:46.595Z,2.47
2018-09-15T16:37:14.784Z,1.70
2018-09-15T16:39:43.014Z,1.65
2018-09-15T16:42:11.203Z,1.62
2018-09-15T16:44:39.384Z,1.65
2018-09-15T16:47:07.583Z,1.27
2018-09-15T16:49:35.766Z,1.60
2018-09-15T16:52:03.937Z,1.82
2018-09-15T16:54:32.117Z,1.47
2018-09-15T16:57:00.340Z,1.60
2018-09-15T16:59:28.507Z,1.98
2018-09-15T17:01:56.699Z,1.55
2018-09-15T17:04:24.998Z,1.92
2018-09-15T17:06:53.183Z,2.95
2018-09-15T17:09:21.391Z,7.08
2018-09-15T17:11:49.573Z,4.55
2018-09-15T17:14:17.754Z,4.12
2018-09-15T17:16:46.047Z,3.25
2018-09-15T17:19:14.123Z,2.77
2018-09-15T17:21:42.308Z,2.67
2018-09-15T17:24:10.506Z,2.55
2018-09-15T17:26:38.723Z,2.90
2018-09-15T17:29:06.993Z,2.37
2018-09-15T17:34:25.664Z,2.05
2018-09-15T17:36:54.141Z,2.12
2018-09-15T17:39:22.323Z,2.10
2018-09-15T17:41:50.523Z,2.35
2018-09-15T17:44:18.708Z,2.55
2018-09-15T17:46:46.934Z,1.95
2018-09-15T17:49:15.159Z,2.10
2018-09-15T17:51:43.350Z,1.95
2018-09-15T17:54:11.542Z,1.98
2018-09-15T17:56:39.738Z,2.20
2018-09-15T17:59:07.919Z,2.17
2018-09-15T18:01:36.117Z,2.02
2018-09-15T18:04:04.291Z,2.15
2018-09-15T18:06:32.564Z,2.42
2018-09-15T18:09:00.803Z,2.45
2018-09-15T18:11:29.012Z,1.75
2018-09-15T18:13:57.249Z,1.98
2018-09-15T18:16:25.423Z,2.05
2018-09-15T18:18:53.621Z,1.98
2018-09-15T18:21:21.810Z,1.82
2018-09-15T18:23:50.007Z,1.82
2018-09-15T18:26:18.189Z,1.75
2018-09-15T18:28:46.520Z,2.05
2018-09-15T18:31:14.696Z,1.90
2018-09-15T18:33:42.931Z,2.50
2018-09-15T18:36:11.199Z,2.50
2018-09-15T18:38:39.320Z,1.85
2018-09-15T18:41:07.567Z,2.92
2018-09-15T18:43:35.734Z,1.72
2018-09-15T18:46:03.952Z,1.85
2018-09-15T18:48:32.163Z,1.98
2018-09-15T18:51:00.353Z,1.98
2018-09-15T18:53:28.558Z,1.77
2018-09-15T18:55:56.781Z,2.08
2018-09-15T18:58:24.987Z,2.30
2018-09-15T19:00:53.209Z,2.27
2018-09-15T19:03:21.425Z,2.60
2018-09-15T19:05:49.640Z,2.10
2018-09-15T19:08:17.807Z,2.20
2018-09-15T19:10:46.023Z,2.35
2018-09-15T19:13:14.218Z,2.72
2018-09-15T19:15:42.469Z,2.30
2018-09-15T19:18:10.664Z,2.42
2018-09-15T19:20:38.874Z,2.60
2018-09-15T19:23:07.069Z,2.75
2018-09-15T19:25:35.252Z,4.40
2018-09-15T19:28:03.447Z,6.20
2018-09-15T19:30:31.698Z,4.72
2018-09-15T19:32:59.935Z,4.25
2018-09-15T19:35:28.135Z,4.58
2018-09-15T19:37:56.338Z,5.55
2018-09-15T19:40:24.571Z,4.92
2018-09-15T19:42:53.364Z,5.65
2018-09-15T19:45:21.564Z,5.30
2018-09-15T19:47:49.821Z,4.60
2018-09-15T19:50:18.030Z,3.87
2018-09-15T19:52:46.225Z,3.92
2018-09-15T19:55:14.423Z,3.92
2018-09-15T19:57:42.615Z,4.33
2018-09-15T20:00:10.856Z,4.28
2018-09-15T20:02:39.049Z,3.50
2018-09-15T20:05:07.279Z,3.20
2018-09-15T20:07:35.505Z,3.90
2018-09-15T20:10:03.680Z,3.67
2018-09-15T20:12:31.871Z,2.70
2018-09-15T20:15:00.068Z,2.65
2018-09-15T20:17:27.283Z,2.95
2018-09-15T20:19:54.512Z,2.65
2018-09-15T20:22:22.725Z,3.00
2018-09-15T20:24:50.929Z,2.90
2018-09-15T20:27:19.121Z,3.10
2018-09-15T20:29:47.349Z,3.85
2018-09-15T20:32:15.575Z,3.58
2018-09-15T20:34:43.794Z,3.87
2018-09-15T20:37:12.028Z,3.33
2018-09-15T20:39:40.234Z,3.70
2018-09-15T20:42:08.431Z,3.58
2018-09-15T20:44:36.641Z,3.83
2018-09-15T20:47:04.851Z,3.60
2018-09-15T20:49:33.040Z,3.40
2018-09-15T20:52:01.259Z,3.25
2018-09-15T20:54:29.476Z,3.83
2018-09-15T20:56:57.670Z,3.40
2018-09-15T20:59:25.885Z,3.25
2018-09-15T21:01:54.067Z,3.25
2018-09-15T21:04:22.264Z,3.50
2018-09-15T21:06:50.466Z,3.20
2018-09-15T21:09:18.675Z,3.20
2018-09-15T21:11:46.896Z,3.40
2018-09-15T21:14:15.080Z,3.20
2018-09-15T21:16:43.308Z,3.77
2018-09-15T21:19:11.508Z,3.20
2018-09-15T21:21:39.711Z,3.37
2018-09-15T21:24:07.940Z,3.25
2018-09-15T21:26:36.419Z,3.60
2018-09-15T21:29:04.614Z,3.67
2018-09-15T21:31:32.811Z,3.60
2018-09-15T21:34:01.028Z,3.85
2018-09-15T21:36:29.226Z,3.85
2018-09-15T21:38:57.436Z,4.42
2018-09-15T21:41:25.636Z,3.55
2018-09-15T21:43:53.942Z,3.60
2018-09-15T21:46:22.138Z,3.83
2018-09-15T21:48:50.422Z,4.50
2018-09-15T21:51:18.617Z,4.60
2018-09-15T21:53:46.880Z,4.92
2018-09-15T21:56:15.051Z,4.33
2018-09-15T21:58:43.246Z,4.78
2018-09-15T22:01:11.522Z,5.00
2018-09-15T22:03:45.213Z,5.05
2018-09-15T22:06:13.395Z,5.30
2018-09-15T22:08:41.597Z,5.53
2018-09-15T22:11:09.774Z,5.72
2018-09-15T22:13:37.964Z,5.78
2018-09-15T22:16:06.153Z,6.30
2018-09-15T22:18:34.356Z,6.28
2018-09-15T22:21:02.588Z,5.65
2018-09-15T22:23:30.719Z,5.10
2018-09-15T22:25:58.891Z,5.72
2018-09-15T22:28:27.096Z,5.10
2018-09-15T22:30:55.393Z,5.30
2018-09-15T22:33:23.612Z,4.80
2018-09-15T22:35:51.795Z,5.03
2018-09-15T22:38:20.003Z,4.97
2018-09-15T22:40:48.255Z,4.72
2018-09-15T22:43:16.668Z,4.58
2018-09-15T22:45:44.865Z,4.90
2018-09-15T22:48:13.240Z,4.53
2018-09-15T22:50:41.450Z,4.20
2018-09-15T22:53:09.639Z,4.42
2018-09-15T22:55:37.860Z,5.12
2018-09-15T22:58:06.062Z,4.33
2018-09-15T23:00:34.273Z,4.87
2018-09-15T23:03:02.491Z,5.00
2018-09-15T23:05:30.714Z,4.70
2018-09-15T23:07:58.904Z,4.92
2018-09-15T23:10:27.103Z,5.55
2018-09-15T23:12:55.305Z,5.62
2018-09-15T23:15:23.655Z,5.10
2018-09-15T23:17:51.845Z,5.58
2018-09-15T23:20:20.108Z,6.03
2018-09-15T23:22:48.309Z,6.17
2018-09-15T23:25:16.564Z,5.77
2018-09-15T23:27:44.739Z,6.20
2018-09-15T23:30:12.937Z,6.13
2018-09-15T23:32:41.118Z,6.28
2018-09-15T23:35:09.331Z,5.53
2018-09-15T23:37:37.522Z,5.70
2018-09-15T23:40:05.774Z,5.80
2018-09-15T23:42:33.944Z,6.05
2018-09-15T23:45:02.176Z,5.27
2018-09-15T23:47:30.354Z,6.10
2018-09-15T23:49:58.547Z,5.97
2018-09-15T23:52:26.750Z,5.20
2018-09-15T23:54:54.970Z,5.50
2018-09-15T23:57:23.134Z,5.63
2018-09-15T23:59:51.327Z,5.67
